Brookhaven, MS

6:58 PM CDT on July 03, 2015 (GMT -0500)
Downtown (Perkins Bldg) | | Change Station
CLOSE
Current Station
Personal Weather Station
Location: Brookhaven, MS
Elevation: 473 ft
Nearby Weather Stations

Elev 473 ft 31.58 °N, 90.44 °W | Updated 1 minute ago

Clear
Clear
89.4 °F
Feels Like 101 °F
N
0.0
Wind Variable Wind from NNW

Today
High -- | Low -- °F
--% Chance of Precip.
Yesterday
High -- | Low -- °F
Precip. -- in
6:01 AM 8:10 PM
Waning Gibbous, 95% visible
Pressure 30.00 in
Visibility -9999.0 miles
Clouds Clear
Heat Index 101 °F
Dew Point 76 °F
Humidity 65%
Rainfall 0.00 in
Snow Depth Not available.
UV 1 out of 12
Pollen 3.20 out of 12
Air Quality Not available.
Flu Activity Not available.
METAR K1R7 032335Z AUTO 19004KT CLR 29/26 A3000 RMK AO2

More Conditions Fewer Conditions

Pressure 30.00 in
Visibility -9999.0 miles
Clouds Clear
Heat Index 101 °F
Dew Point 76 °F
Humidity 65%
Rainfall 0.00 in
Snow Depth Not available.
UV 1 out of 12
Pollen 3.20 out of 12
Air Quality Not available.
Flu Activity Not available.
METAR K1R7 032335Z AUTO 19004KT CLR 29/26 A3000 RMK AO2

More Conditions Fewer Conditions

10-Day Weather Forecast

×

Almanac

Astronomy

Jul. 03, 2015 Rise Set
Actual Time
Civil Twilight
Nautical Twilight
Astronomical Twilight
Moon
Length of Visible Light
Length of Day
Tomorrow will be .
, % of the Moon is Illuminated

Today's Extremes

State Highs State Lows

Community

WunderPhotos

Upload Photos

1,834,823 photos uploaded!

WunderBlogs® & News

Nearby

Air Quality

  Air Quality AQ Index Pollutant
Not available.

Snow Depth

Station Depth Elevation

Earthquake Activity

City Distance Mag. Time & Date
Minimum magnitude displayed is 2.5.

Coastal Water Temperatures

Place Temperature

Stations

Nearby Weather Stations

Station Location Temp. Windchill Dew Point Humidity Wind Precip. Elev Updated Type